createdAt,value
2018-03-01T00:01:40.566Z,97370.00
2018-03-01T00:04:08.193Z,97374.24
2018-03-01T00:06:35.742Z,97374.05
2018-03-01T00:09:03.797Z,97370.24
2018-03-01T00:11:31.347Z,97362.44
2018-03-01T00:13:59.231Z,97357.62
2018-03-01T00:16:26.821Z,97355.30
2018-03-01T00:18:54.640Z,97351.86
2018-03-01T00:21:22.189Z,97358.25
2018-03-01T00:23:49.830Z,97358.48
2018-03-01T00:26:17.544Z,97362.59
2018-03-01T00:28:45.661Z,97373.39
2018-03-01T00:31:13.210Z,97369.36
2018-03-01T00:33:40.873Z,97370.89
2018-03-01T00:36:08.503Z,97357.28
2018-03-01T00:38:36.044Z,97362.89
2018-03-01T00:41:03.620Z,97354.02
2018-03-01T00:43:31.324Z,97350.69
2018-03-01T00:45:58.870Z,97348.67
2018-03-01T00:48:26.463Z,97346.45
2018-03-01T00:50:56.015Z,97347.38
2018-03-01T00:53:23.623Z,97358.77
2018-03-01T00:55:51.645Z,97355.63
2018-03-01T00:58:19.788Z,97347.36
2018-03-01T01:00:47.380Z,97344.62
2018-03-01T01:03:14.914Z,97339.39
2018-03-01T01:05:42.639Z,97349.47
2018-03-01T01:08:10.195Z,97345.12
2018-03-01T01:10:38.685Z,97332.72
2018-03-01T01:13:06.278Z,97343.03
2018-03-01T01:15:33.975Z,97338.88
2018-03-01T01:18:01.586Z,97327.69
2018-03-01T01:20:29.329Z,97323.64
2018-03-01T01:22:57.457Z,97315.40
2018-03-01T01:25:25.014Z,97315.16
2018-03-01T01:27:52.630Z,97309.22
2018-03-01T01:30:20.248Z,97306.72
2018-03-01T01:32:47.802Z,97299.63
2018-03-01T01:35:15.369Z,97296.42
2018-03-01T01:37:42.918Z,97283.62
2018-03-01T01:40:10.629Z,97292.19
2018-03-01T01:42:38.182Z,97293.50
2018-03-01T01:45:05.827Z,97291.48
2018-03-01T01:47:33.460Z,97283.59
2018-03-01T01:50:01.458Z,97281.01
2018-03-01T01:52:29.043Z,97282.31
2018-03-01T01:54:56.854Z,97285.41
2018-03-01T01:57:24.419Z,97273.53
2018-03-01T01:59:52.818Z,97268.27
2018-03-01T02:02:20.359Z,97262.64
2018-03-01T02:04:47.985Z,97254.58
2018-03-01T02:07:15.629Z,97249.41
2018-03-01T02:09:46.319Z,97247.22
2018-03-01T02:12:13.844Z,97238.25
2018-03-01T02:14:41.445Z,97237.42
2018-03-01T02:17:09.217Z,97232.67
2018-03-01T02:19:36.905Z,97225.72
2018-03-01T02:22:04.737Z,97217.86
2018-03-01T02:24:33.010Z,97213.70
2018-03-01T02:27:00.642Z,97207.89
2018-03-01T02:29:28.248Z,97200.03
2018-03-01T02:31:55.890Z,97190.06
2018-03-01T02:34:23.424Z,97176.44
2018-03-01T02:36:50.988Z,97178.58
2018-03-01T02:39:18.631Z,97173.11
2018-03-01T02:41:46.259Z,97172.61
2018-03-01T02:44:13.891Z,97175.13
2018-03-01T02:46:41.704Z,97167.27
2018-03-01T02:49:10.090Z,97164.36
2018-03-01T02:51:37.842Z,97163.45
2018-03-01T02:54:05.513Z,97158.83
2018-03-01T02:56:33.524Z,97155.20
2018-03-01T02:59:01.273Z,97156.02
2018-03-01T03:01:28.903Z,97155.20
2018-03-01T03:03:56.564Z,97151.27
2018-03-01T03:06:24.350Z,97161.23
2018-03-01T03:08:52.084Z,97154.58
2018-03-01T03:11:19.697Z,97145.92
2018-03-01T03:13:47.230Z,97137.45
2018-03-01T03:16:15.072Z,97134.52
2018-03-01T03:18:42.728Z,97127.09
2018-03-01T03:21:10.475Z,97121.73
2018-03-01T03:23:38.084Z,97132.03
2018-03-01T03:26:05.669Z,97123.25
2018-03-01T03:28:33.410Z,97123.25
2018-03-01T03:31:01.059Z,97120.65
2018-03-01T03:33:28.928Z,97123.85
2018-03-01T03:35:56.690Z,97127.80
2018-03-01T03:38:24.241Z,97123.85
2018-03-01T03:40:51.803Z,97123.16
2018-03-01T03:43:19.474Z,97115.70
2018-03-01T03:45:47.144Z,97117.41
2018-03-01T03:48:15.675Z,97110.45
2018-03-01T03:50:43.221Z,97105.52
2018-03-01T03:53:10.764Z,97117.63
2018-03-01T03:55:39.353Z,97120.53
2018-03-01T03:58:06.940Z,97123.36
2018-03-01T04:00:34.474Z,97119.32
2018-03-01T04:03:02.200Z,97117.41
2018-03-01T04:05:29.740Z,97117.63
2018-03-01T04:07:57.405Z,97109.84
2018-03-01T04:10:25.115Z,97094.02
2018-03-01T04:12:53.494Z,97089.25
2018-03-01T04:15:21.144Z,97084.84
2018-03-01T04:17:48.760Z,97071.86
2018-03-01T04:20:16.289Z,97074.79
2018-03-01T04:22:43.908Z,97075.38
2018-03-01T04:25:12.381Z,97084.45
2018-03-01T04:27:40.051Z,97079.38
2018-03-01T04:30:07.649Z,97076.39
2018-03-01T04:32:35.283Z,97078.35
2018-03-01T04:35:02.831Z,97072.64
2018-03-01T04:37:30.444Z,97074.52
2018-03-01T04:39:57.978Z,97074.55
2018-03-01T04:42:25.598Z,97063.74
2018-03-01T04:47:20.130Z,97060.36
2018-03-01T04:49:47.823Z,97061.45
2018-03-01T04:52:15.470Z,97054.16
2018-03-01T04:54:43.031Z,97064.08
2018-03-01T04:57:10.830Z,97061.72
2018-03-01T04:59:38.539Z,97059.73
2018-03-01T05:02:06.086Z,97059.55
2018-03-01T05:04:33.640Z,97058.78
2018-03-01T05:07:01.321Z,97056.78
2018-03-01T05:09:28.883Z,97056.58
2018-03-01T05:11:56.682Z,97056.27
2018-03-01T05:14:24.264Z,97054.84
2018-03-01T05:16:52.703Z,97055.26
2018-03-01T05:19:20.484Z,97061.00
2018-03-01T05:21:48.191Z,97057.67
2018-03-01T05:24:15.939Z,97059.64
2018-03-01T05:26:43.790Z,97062.20
2018-03-01T05:29:11.326Z,97059.08
2018-03-01T05:31:38.921Z,97068.05
2018-03-01T05:34:06.482Z,97062.08
2018-03-01T05:36:34.064Z,97060.08
2018-03-01T05:39:01.685Z,97058.42
2018-03-01T05:41:29.491Z,97055.39
2018-03-01T05:43:57.345Z,97049.87
2018-03-01T05:46:25.664Z,97038.59
2018-03-01T05:48:53.905Z,97040.78
2018-03-01T05:51:21.524Z,97046.28
2018-03-01T05:53:49.420Z,97043.28
2018-03-01T05:56:17.980Z,97033.56
2018-03-01T05:58:45.643Z,97026.20
2018-03-01T06:01:13.270Z,97028.07
2018-03-01T06:03:40.914Z,97016.30
2018-03-01T06:06:08.611Z,97015.52
2018-03-01T06:08:36.286Z,97021.89
2018-03-01T06:11:03.823Z,97013.64
2018-03-01T06:13:31.838Z,97015.80
2018-03-01T06:16:00.125Z,97020.41
2018-03-01T06:18:27.780Z,97024.77
2018-03-01T06:20:55.355Z,97021.64
2018-03-01T06:23:22.985Z,97023.86
2018-03-01T06:25:50.548Z,97024.38
2018-03-01T06:28:18.371Z,97016.42
2018-03-01T06:30:46.322Z,97025.00
2018-03-01T06:33:15.020Z,97018.56
2018-03-01T06:35:42.608Z,97012.09
2018-03-01T06:38:10.161Z,97005.98
2018-03-01T06:40:37.840Z,97000.48
2018-03-01T06:43:05.382Z,96993.60
2018-03-01T06:45:33.809Z,96997.59
2018-03-01T06:48:01.539Z,96984.78
2018-03-01T06:50:29.246Z,96987.62
2018-03-01T06:52:57.018Z,96996.67
2018-03-01T06:55:24.918Z,96995.55
2018-03-01T06:57:52.464Z,96997.53
2018-03-01T07:00:20.035Z,97001.34
2018-03-01T07:02:47.659Z,96994.47
2018-03-01T07:05:15.345Z,96994.14
2018-03-01T07:07:43.459Z,96987.45
2018-03-01T07:10:11.135Z,96987.41
2018-03-01T07:12:38.760Z,96985.55
2018-03-01T07:15:06.424Z,96977.94
2018-03-01T07:17:34.134Z,96966.40
2018-03-01T07:20:01.692Z,96973.72
2018-03-01T07:22:29.692Z,96963.56
2018-03-01T07:24:57.513Z,96968.22
2018-03-01T07:27:25.057Z,96975.97
2018-03-01T07:29:52.691Z,96973.15
2018-03-01T07:32:20.240Z,96978.20
2018-03-01T07:34:47.963Z,96983.04
2018-03-01T07:37:15.794Z,96989.45
2018-03-01T07:39:43.339Z,96977.36
2018-03-01T07:42:11.025Z,96971.33
2018-03-01T07:44:39.649Z,96966.45
2018-03-01T07:47:07.451Z,96961.69
2018-03-01T07:49:35.238Z,96958.91
2018-03-01T07:52:03.123Z,96967.94
2018-03-01T07:54:30.660Z,96972.25
2018-03-01T07:56:58.335Z,96964.22
2018-03-01T07:59:26.005Z,96966.06
2018-03-01T08:01:53.605Z,96963.99
2018-03-01T08:04:21.402Z,96965.08
2018-03-01T08:06:49.993Z,96955.14
2018-03-01T08:09:17.940Z,96956.12
2018-03-01T08:11:45.535Z,96954.73
2018-03-01T08:14:13.204Z,96959.26
2018-03-01T08:16:40.753Z,96961.97
2018-03-01T08:19:08.319Z,96961.30
2018-03-01T08:21:36.085Z,96957.05
2018-03-01T08:24:03.878Z,96946.73
2018-03-01T08:26:31.959Z,96947.14
2018-03-01T08:28:59.495Z,96948.06
2018-03-01T08:31:27.129Z,96952.34
2018-03-01T08:33:54.845Z,96936.71
2018-03-01T08:36:22.473Z,96931.59
2018-03-01T08:38:51.050Z,96935.88
2018-03-01T08:41:18.670Z,96928.77
2018-03-01T08:43:46.316Z,96924.16
2018-03-01T08:46:14.114Z,96929.39
2018-03-01T08:48:41.748Z,96928.06
2018-03-01T08:51:09.476Z,96925.12
2018-03-01T08:53:37.025Z,96926.75
2018-03-01T08:56:06.099Z,96925.70
2018-03-01T08:58:33.663Z,96933.03
2018-03-01T09:01:01.470Z,96930.19
2018-03-01T09:03:29.325Z,96928.00
2018-03-01T09:05:56.971Z,96926.06
2018-03-01T09:08:24.922Z,96929.28
2018-03-01T09:10:52.565Z,96926.64
2018-03-01T09:13:20.261Z,96922.85
2018-03-01T09:15:49.625Z,96922.84
2018-03-01T09:18:17.285Z,96922.98
2018-03-01T09:20:44.894Z,96917.94
2018-03-01T09:23:12.460Z,96924.06
2018-03-01T09:25:40.004Z,96917.28
2018-03-01T09:28:07.781Z,96917.11
2018-03-01T09:30:35.397Z,96919.39
2018-03-01T09:33:03.148Z,96918.33
2018-03-01T09:35:30.881Z,96919.75
2018-03-01T09:37:58.453Z,96915.22
2018-03-01T09:40:26.100Z,96922.59
2018-03-01T09:42:53.815Z,96917.59
2018-03-01T09:45:21.758Z,96918.16
2018-03-01T09:47:49.331Z,96914.08
2018-03-01T09:50:16.912Z,96911.33
2018-03-01T09:52:44.695Z,96910.94
2018-03-01T09:55:13.234Z,96910.33
2018-03-01T09:57:40.955Z,96905.87
2018-03-01T10:00:08.486Z,96897.50
2018-03-01T10:02:36.453Z,96898.91
2018-03-01T10:05:04.356Z,96901.25
2018-03-01T10:07:31.903Z,96893.83
2018-03-01T10:09:59.713Z,96893.08
2018-03-01T10:12:27.455Z,96885.41
2018-03-01T10:14:55.449Z,96890.23
2018-03-01T10:17:23.314Z,96890.41
2018-03-01T10:19:50.879Z,96869.67
2018-03-01T10:22:18.600Z,96872.44
2018-03-01T10:24:46.136Z,96866.50
2018-03-01T10:27:13.690Z,96866.09
2018-03-01T10:29:47.515Z,96868.75
2018-03-01T10:32:15.290Z,96872.70
2018-03-01T10:34:42.953Z,96872.75
2018-03-01T10:37:10.612Z,96868.20
2018-03-01T10:39:38.174Z,96869.52
2018-03-01T10:42:05.856Z,96861.28
2018-03-01T10:44:33.475Z,96848.23
2018-03-01T10:47:01.095Z,96861.44
2018-03-01T10:49:28.906Z,96866.31
2018-03-01T10:51:56.736Z,96860.53
2018-03-01T10:54:24.310Z,96859.98
2018-03-01T10:56:51.920Z,96857.64
2018-03-01T10:59:19.569Z,96856.83
2018-03-01T11:01:52.131Z,96853.34
2018-03-01T11:04:19.895Z,96856.19
2018-03-01T11:06:47.654Z,96848.32
2018-03-01T11:09:15.594Z,96853.00
2018-03-01T11:11:43.180Z,96850.23
2018-03-01T11:14:10.796Z,96837.83
2018-03-01T11:16:38.377Z,96837.97
2018-03-01T11:19:06.835Z,96826.09
2018-03-01T11:21:34.449Z,96819.72
2018-03-01T11:24:02.202Z,96815.46
2018-03-01T11:26:30.525Z,96813.30
2018-03-01T11:28:58.171Z,96810.07
2018-03-01T11:31:25.844Z,96809.37
2018-03-01T11:33:53.544Z,96807.06
2018-03-01T11:36:21.388Z,96792.03
2018-03-01T11:38:48.948Z,96783.70
2018-03-01T11:41:16.565Z,96783.14
2018-03-01T11:43:44.498Z,96774.07
2018-03-01T11:46:12.450Z,96759.84
2018-03-01T11:48:40.240Z,96766.12
2018-03-01T11:51:07.872Z,96764.30
2018-03-01T11:53:35.855Z,96756.21
2018-03-01T11:56:03.694Z,96747.98
2018-03-01T11:58:31.698Z,96750.95
2018-03-01T12:00:59.374Z,96753.23
2018-03-01T12:03:27.095Z,96750.73
2018-03-01T12:05:54.622Z,96739.47
2018-03-01T12:08:22.329Z,96728.97
2018-03-01T12:10:49.880Z,96722.70
2018-03-01T12:13:17.800Z,96729.44
2018-03-01T12:15:45.475Z,96732.02
2018-03-01T12:18:13.149Z,96732.81
2018-03-01T12:20:40.699Z,96730.61
2018-03-01T12:23:08.251Z,96717.77
2018-03-01T12:25:35.949Z,96720.06
2018-03-01T12:28:03.458Z,96716.25
2018-03-01T12:30:31.228Z,96710.08
2018-03-01T12:32:58.769Z,96707.97
2018-03-01T12:35:26.446Z,96711.03
2018-03-01T12:37:54.164Z,96708.00
2018-03-01T12:40:21.830Z,96697.11
2018-03-01T12:42:49.477Z,96696.88
2018-03-01T12:45:17.592Z,96693.53
2018-03-01T12:47:45.454Z,96693.55
2018-03-01T12:50:13.229Z,96684.73
2018-03-01T12:52:40.919Z,96689.92
2018-03-01T12:55:08.668Z,96676.59
2018-03-01T12:57:36.375Z,96680.29
2018-03-01T13:00:04.349Z,96671.95
2018-03-01T13:02:32.740Z,96679.20
2018-03-01T13:05:00.313Z,96678.33
2018-03-01T13:07:27.955Z,96670.34
2018-03-01T13:09:56.062Z,96683.89
2018-03-01T13:12:24.529Z,96670.16
2018-03-01T13:14:52.100Z,96662.89
2018-03-01T13:17:19.734Z,96676.37
2018-03-01T13:19:47.319Z,96673.84
2018-03-01T13:22:14.954Z,96666.52
2018-03-01T13:24:42.685Z,96669.94
2018-03-01T13:27:10.456Z,96667.23
2018-03-01T13:29:38.188Z,96659.40
2018-03-01T13:35:27.405Z,96660.58
2018-03-01T13:37:54.964Z,96659.97
2018-03-01T13:40:22.746Z,96652.91
2018-03-01T13:42:52.594Z,96666.12
2018-03-01T13:45:20.921Z,96669.13
2018-03-01T13:47:49.985Z,96652.70
2018-03-01T13:50:17.589Z,96652.19
2018-03-01T13:52:45.362Z,96659.25
2018-03-01T13:55:13.073Z,96644.30
2018-03-01T13:57:40.755Z,96649.80
2018-03-01T14:00:08.399Z,96643.22
2018-03-01T14:02:36.209Z,96647.20
2018-03-01T14:05:03.779Z,96637.91
2018-03-01T14:07:35.828Z,96636.20
2018-03-01T14:10:04.003Z,96636.85
2018-03-01T14:12:37.281Z,96641.13
2018-03-01T14:15:06.254Z,96633.28
2018-03-01T14:17:36.407Z,96633.16
2018-03-01T14:23:14.479Z,96632.30
2018-03-01T14:25:42.115Z,96622.00
2018-03-01T14:28:12.870Z,96624.11
2018-03-01T14:30:40.652Z,96619.88
2018-03-01T14:33:09.181Z,96616.41
2018-03-01T14:35:36.735Z,96617.22
2018-03-01T14:38:04.328Z,96618.41
2018-03-01T14:40:31.966Z,96621.68
2018-03-01T14:42:59.675Z,96625.10
2018-03-01T14:45:27.510Z,96617.28
2018-03-01T14:47:55.353Z,96621.12
2018-03-01T14:50:23.305Z,96622.72
2018-03-01T14:52:51.161Z,96621.11
2018-03-01T14:55:18.818Z,96609.86
2018-03-01T14:57:46.565Z,96616.66
2018-03-01T15:00:14.239Z,96615.82
2018-03-01T15:02:42.241Z,96609.98
2018-03-01T15:05:09.900Z,96615.33
2018-03-01T15:07:37.645Z,96618.72
2018-03-01T15:10:05.763Z,96609.55
2018-03-01T15:12:33.321Z,96603.38
2018-03-01T15:15:01.155Z,96595.75
2018-03-01T15:17:28.760Z,96604.21
2018-03-01T15:19:56.408Z,96606.27
2018-03-01T15:22:24.044Z,96599.72
2018-03-01T15:24:52.328Z,96602.88
2018-03-01T15:27:20.060Z,96596.27
2018-03-01T15:29:48.381Z,96613.42
2018-03-01T15:32:15.956Z,96603.28
2018-03-01T15:34:43.631Z,96612.09
2018-03-01T15:37:11.518Z,96599.99
2018-03-01T15:39:39.055Z,96600.75
2018-03-01T15:42:06.760Z,96591.42
2018-03-01T15:44:34.523Z,96598.08
2018-03-01T15:47:02.514Z,96600.91
2018-03-01T15:49:30.092Z,96600.27
2018-03-01T15:51:57.732Z,96595.98
2018-03-01T15:54:25.418Z,96605.70
2018-03-01T15:56:52.926Z,96598.76
2018-03-01T15:59:20.755Z,96606.91
2018-03-01T16:01:48.444Z,96593.16
2018-03-01T16:04:16.245Z,96595.88
2018-03-01T16:06:43.911Z,96601.55
2018-03-01T16:09:11.565Z,96611.43
2018-03-01T16:11:39.974Z,96615.47
2018-03-01T16:14:07.584Z,96613.36
2018-03-01T16:16:35.286Z,96608.30
2018-03-01T16:19:03.550Z,96612.80
2018-03-01T16:21:31.339Z,96604.63
2018-03-01T16:23:59.090Z,96600.84
2018-03-01T16:26:26.758Z,96602.06
2018-03-01T16:28:54.515Z,96596.38
2018-03-01T16:31:22.384Z,96591.95
2018-03-01T16:33:50.013Z,96591.29
2018-03-01T16:36:17.954Z,96587.96
2018-03-01T16:38:47.323Z,96596.82
2018-03-01T16:41:15.074Z,96589.69
2018-03-01T16:43:42.753Z,96592.73
2018-03-01T16:46:10.665Z,96592.15
2018-03-01T16:48:38.515Z,96582.30
2018-03-01T16:51:06.233Z,96594.23
2018-03-01T16:53:33.870Z,96594.98
2018-03-01T16:56:01.576Z,96591.53
2018-03-01T16:58:29.245Z,96590.52
2018-03-01T17:00:57.179Z,96587.21
2018-03-01T17:03:24.805Z,96597.67
2018-03-01T17:05:52.379Z,96599.50
2018-03-01T17:08:20.874Z,96605.26
2018-03-01T17:10:48.496Z,96606.94
2018-03-01T17:13:17.074Z,96612.79
2018-03-01T17:15:44.796Z,96618.90
2018-03-01T17:18:12.590Z,96615.70
2018-03-01T17:20:40.259Z,96616.84
2018-03-01T17:23:08.503Z,96611.92
2018-03-01T17:25:36.141Z,96601.36
2018-03-01T17:28:03.780Z,96600.94
2018-03-01T17:30:31.440Z,96608.50
2018-03-01T17:32:59.041Z,96604.13
2018-03-01T17:35:26.848Z,96608.83
2018-03-01T17:37:55.394Z,96601.08
2018-03-01T17:40:23.106Z,96594.94
2018-03-01T17:42:50.679Z,96597.66
2018-03-01T17:45:18.544Z,96600.16
2018-03-01T17:47:46.281Z,96597.48
2018-03-01T17:50:13.846Z,96602.99
2018-03-01T17:52:41.709Z,96595.73
2018-03-01T17:55:09.470Z,96594.34
2018-03-01T17:57:37.069Z,96593.09
2018-03-01T18:00:04.790Z,96600.02
2018-03-01T18:02:33.936Z,96597.84
2018-03-01T18:05:01.491Z,96601.41
2018-03-01T18:07:29.179Z,96601.36
2018-03-01T18:09:57.043Z,96595.45
2018-03-01T18:12:24.990Z,96598.45
2018-03-01T18:14:52.813Z,96589.38
2018-03-01T18:17:20.552Z,96596.11
2018-03-01T18:19:48.325Z,96588.58
2018-03-01T18:22:16.283Z,96588.27
2018-03-01T18:24:44.268Z,96589.13
2018-03-01T18:27:11.844Z,96588.59
2018-03-01T18:29:39.419Z,96588.22
2018-03-01T18:32:07.286Z,96583.69
2018-03-01T18:34:35.030Z,96582.65
2018-03-01T18:37:02.606Z,96585.80
2018-03-01T18:39:30.300Z,96570.79
2018-03-01T18:41:57.913Z,96573.63
2018-03-01T18:44:25.630Z,96568.29
2018-03-01T18:46:53.668Z,96554.88
2018-03-01T18:49:21.353Z,96557.59
2018-03-01T18:51:51.043Z,96557.36
2018-03-01T18:54:20.193Z,96555.96
2018-03-01T18:56:50.079Z,96547.39
2018-03-01T18:59:18.871Z,96544.17
2018-03-01T19:01:47.723Z,96542.48
2018-03-01T19:04:16.956Z,96545.33
2018-03-01T19:06:45.843Z,96538.91
2018-03-01T19:09:15.701Z,96536.66
2018-03-01T19:11:44.845Z,96533.53
2018-03-01T19:14:12.548Z,96532.30
2018-03-01T19:16:40.175Z,96529.53
2018-03-01T19:19:07.764Z,96514.89
2018-03-01T19:21:35.366Z,96516.81
2018-03-01T19:24:03.487Z,96523.30
2018-03-01T19:26:31.332Z,96519.14
2018-03-01T19:28:59.061Z,96519.45
2018-03-01T19:31:26.680Z,96519.23
2018-03-01T19:33:54.421Z,96518.98
2018-03-01T19:36:22.029Z,96525.13
2018-03-01T19:38:49.755Z,96525.33
2018-03-01T19:41:17.565Z,96525.77
2018-03-01T19:43:45.506Z,96527.28
2018-03-01T19:46:13.803Z,96522.03
2018-03-01T19:48:41.441Z,96517.23
2018-03-01T19:51:09.212Z,96517.13
2018-03-01T19:53:37.053Z,96510.50
2018-03-01T19:56:04.863Z,96504.73
2018-03-01T19:58:32.554Z,96497.06
2018-03-01T20:01:00.356Z,96492.34
2018-03-01T20:03:28.019Z,96494.25
2018-03-01T20:05:55.683Z,96494.19
2018-03-01T20:08:23.639Z,96492.84
2018-03-01T20:10:51.349Z,96490.77
2018-03-01T20:13:18.933Z,96494.02
2018-03-01T20:15:46.638Z,96493.14
2018-03-01T20:18:14.296Z,96492.34
2018-03-01T20:20:42.025Z,96487.89
2018-03-01T20:23:09.588Z,96488.66
2018-03-01T20:25:37.226Z,96481.52
2018-03-01T20:28:05.136Z,96481.72
2018-03-01T20:30:33.553Z,96476.62
2018-03-01T20:33:01.445Z,96473.70
2018-03-01T20:35:29.509Z,96469.48
2018-03-01T20:37:57.114Z,96472.81
2018-03-01T20:40:24.801Z,96475.05
2018-03-01T20:42:52.363Z,96470.89
2018-03-01T20:45:20.104Z,96470.09
2018-03-01T20:47:47.865Z,96473.44
2018-03-01T20:50:15.644Z,96473.10
2018-03-01T20:52:43.279Z,96466.90
2018-03-01T20:55:10.907Z,96470.95
2018-03-01T20:57:38.614Z,96465.47
2018-03-01T21:00:06.449Z,96469.11
2018-03-01T21:02:34.298Z,96469.11
2018-03-01T21:05:02.006Z,96469.39
2018-03-01T21:07:29.878Z,96473.35
2018-03-01T21:09:57.636Z,96483.42
2018-03-01T21:12:25.305Z,96483.94
2018-03-01T21:14:53.475Z,96484.12
2018-03-01T21:17:21.901Z,96475.70
2018-03-01T21:19:49.567Z,96478.78
2018-03-01T21:22:18.229Z,96481.34
2018-03-01T21:24:45.835Z,96471.08
2018-03-01T21:27:13.514Z,96468.66
2018-03-01T21:29:41.086Z,96462.47
2018-03-01T21:32:08.656Z,96461.62
2018-03-01T21:34:36.510Z,96459.89
2018-03-01T21:37:04.079Z,96455.58
2018-03-01T21:39:32.504Z,96458.33
2018-03-01T21:42:00.280Z,96455.75
2018-03-01T21:44:27.881Z,96449.89
2018-03-01T21:47:07.600Z,96446.05
2018-03-01T21:49:35.375Z,96441.34
2018-03-01T21:52:03.090Z,96440.95
2018-03-01T21:54:30.766Z,96436.92
2018-03-01T21:56:58.573Z,96436.06
2018-03-01T21:59:26.274Z,96437.58
2018-03-01T22:01:54.208Z,96434.52
2018-03-01T22:04:21.838Z,96433.42
2018-03-01T22:06:50.444Z,96436.59
2018-03-01T22:09:18.156Z,96434.48
2018-03-01T22:11:45.914Z,96427.34
2018-03-01T22:14:13.576Z,96428.30
2018-03-01T22:16:41.190Z,96424.58
2018-03-01T22:19:09.034Z,96427.00
2018-03-01T22:21:37.891Z,96422.58
2018-03-01T22:24:05.519Z,96419.91
2018-03-01T22:26:33.088Z,96404.36
2018-03-01T22:29:00.856Z,96402.55
2018-03-01T22:31:28.668Z,96391.22
2018-03-01T22:33:56.710Z,96398.67
2018-03-01T22:36:24.524Z,96389.58
2018-03-01T22:38:53.705Z,96390.85
2018-03-01T22:41:21.397Z,96397.20
2018-03-01T22:43:49.072Z,96397.50
2018-03-01T22:46:16.741Z,96392.62
2018-03-01T22:48:44.416Z,96394.41
2018-03-01T22:51:12.150Z,96393.05
2018-03-01T22:53:39.686Z,96384.80
2018-03-01T22:56:07.356Z,96379.06
2018-03-01T22:58:35.089Z,96378.99
2018-03-01T23:01:03.321Z,96365.33
2018-03-01T23:03:31.025Z,96370.16
2018-03-01T23:05:59.550Z,96363.88
2018-03-01T23:08:27.180Z,96367.95
2018-03-01T23:10:54.820Z,96360.23
2018-03-01T23:13:22.395Z,96359.48
2018-03-01T23:15:50.079Z,96360.91
2018-03-01T23:18:17.645Z,96360.22
2018-03-01T23:20:45.441Z,96360.95
2018-03-01T23:23:12.993Z,96363.42
2018-03-01T23:25:40.688Z,96352.02
2018-03-01T23:28:08.846Z,96346.52
2018-03-01T23:30:36.500Z,96350.58
2018-03-01T23:33:04.085Z,96350.73
2018-03-01T23:35:31.793Z,96344.58
2018-03-01T23:37:59.409Z,96343.25
2018-03-01T23:40:27.190Z,96339.09
2018-03-01T23:42:54.854Z,96335.73
2018-03-01T23:45:22.473Z,96324.95
2018-03-01T23:47:50.144Z,96320.31
2018-03-01T23:50:17.925Z,96315.70
2018-03-01T23:52:45.610Z,96312.48
2018-03-01T23:55:13.175Z,96302.54
2018-03-01T23:57:40.729Z,96304.60
